Ban Baen Chado, Thailand

3:31 PM +07 on July 20, 2018 (GMT +0700)
Bangkok International | | Change Station

Elev 39 ft 13.91 °N, 100.60 °E | Updated 31 minutes ago

Partly Cloudy
Partly Cloudy
90 °F
Feels Like 102 °F
N
12
Wind Variable Wind from SW

Today
High -- | Low -- °F
--% Chance of Precip.
Yesterday
High -- | Low -- °F
Precip. -- in
Pressure 29.65 in
Visibility 6.2 miles
Clouds Few 2000 ft
Scattered Clouds 3500 ft
Heat Index 102 °F
Dew Point 77 °F
Humidity 66%
Rainfall 0.00 in
Snow Depth Not available.
5:58 AM 6:48 PM
First Quarter, 56% visible
METAR VTBD 200800Z 22010KT 190V260 9999 FEW020CB SCT035 32/25 Q1004 TEMPO FM0810 TL0850 23015G25KT 5000 TSRA
Pressure 29.65 in
Visibility 6.2 miles
Clouds Few 2000 ft
Scattered Clouds 3500 ft
Heat Index 102 °F
Dew Point 77 °F
Humidity 66%
Rainfall 0.00 in
Snow Depth Not available.
5:58 AM 6:48 PM
First Quarter, 56% visible
METAR VTBD 200800Z 22010KT 190V260 9999 FEW020CB SCT035 32/25 Q1004 TEMPO FM0810 TL0850 23015G25KT 5000 TSRA

Get Severe Weather Alerts

Thanks for signing up!

Be on the lookout for a verification email in your inbox.

You'll start receiving the daily forecast at 6 AM.

×

10-Day Weather Forecast

No radar image for this location.
×

Almanac

Astronomy

Jul. 20, 2018 Rise Set
Actual Time
Civil Twilight
Nautical Twilight
Astronomical Twilight
Moon
Length of Visible Light
Length of Day
Tomorrow will be .
, % of the Moon is Illuminated

Today's Extremes

Country Highs Country Lows

Community

WunderPhotos

Category 6

Welcome to Category 6. This is the collective home for Weather Underground's featured writeups by Dr. Jeff Masters (right), Bob Henson (left), Chris Burt, and other regular contributors.

Nearby

Air Quality

  Air Quality AQ Index Pollutant
Not available.

Snow Depth

Station Depth Elevation

Earthquake Activity

City Distance Mag. Time & Date
Minimum magnitude displayed is 2.5.

Coastal Water Temperatures

Place Temperature

Stations

Nearby Weather Stations

Station Location Temp. Windchill Dew Point Humidity Wind Precip. Elev Updated Type